sensor_id;sensor_type;location;lat;lon;timestamp;pressure;altitude;pressure_sealevel;temperature;humidity
17060;BME280;8646;49.716;9.266;2023-05-09T00:02:26;100590.63;;;15.52;98.78
17060;BME280;8646;49.716;9.266;2023-05-09T00:05:30;100583.41;;;15.51;98.83
17060;BME280;8646;49.716;9.266;2023-05-09T00:08:34;100582.19;;;15.57;98.45
17060;BME280;8646;49.716;9.266;2023-05-09T00:11:38;100591.25;;;15.57;98.71
17060;BME280;8646;49.716;9.266;2023-05-09T00:14:41;100586.59;;;15.59;98.43
17060;BME280;8646;49.716;9.266;2023-05-09T00:17:46;100590.13;;;15.61;98.08
17060;BME280;8646;49.716;9.266;2023-05-09T00:20:49;100580.75;;;15.65;98.20
17060;BME280;8646;49.716;9.266;2023-05-09T00:23:53;100584.13;;;15.71;97.98
17060;BME280;8646;49.716;9.266;2023-05-09T00:26:56;100570.47;;;15.71;97.74
17060;BME280;8646;49.716;9.266;2023-05-09T00:29:58;100574.97;;;15.72;98.05
17060;BME280;8646;49.716;9.266;2023-05-09T00:33:01;100564.94;;;15.72;97.95
17060;BME280;8646;49.716;9.266;2023-05-09T00:36:05;100555.94;;;15.70;97.59
17060;BME280;8646;49.716;9.266;2023-05-09T00:39:09;100554.78;;;15.74;97.57
17060;BME280;8646;49.716;9.266;2023-05-09T00:42:11;100550.19;;;15.75;97.22
17060;BME280;8646;49.716;9.266;2023-05-09T00:45:14;100549.09;;;15.63;97.95
17060;BME280;8646;49.716;9.266;2023-05-09T00:48:17;100539.06;;;15.63;97.67
17060;BME280;8646;49.716;9.266;2023-05-09T00:51:20;100542.06;;;15.59;98.21
17060;BME280;8646;49.716;9.266;2023-05-09T00:54:25;100544.34;;;15.51;98.24
17060;BME280;8646;49.716;9.266;2023-05-09T00:57:27;100537.31;;;15.47;98.64
17060;BME280;8646;49.716;9.266;2023-05-09T01:00:30;100528.66;;;15.70;97.84
17060;BME280;8646;49.716;9.266;2023-05-09T01:03:33;100529.38;;;15.58;98.21
17060;BME280;8646;49.716;9.266;2023-05-09T01:06:43;100533.09;;;15.41;98.97
17060;BME280;8646;49.716;9.266;2023-05-09T01:09:55;100519.56;;;15.55;98.85
17060;BME280;8646;49.716;9.266;2023-05-09T01:13:05;100528.34;;;15.45;99.32
17060;BME280;8646;49.716;9.266;2023-05-09T01:16:17;100518.91;;;15.50;99.27
17060;BME280;8646;49.716;9.266;2023-05-09T01:19:39;100516.94;;;15.38;99.39
17060;BME280;8646;49.716;9.266;2023-05-09T01:22:53;100516.31;;;15.33;99.98
17060;BME280;8646;49.716;9.266;2023-05-09T01:26:01;100520.28;;;15.27;99.92
17060;BME280;8646;49.716;9.266;2023-05-09T01:29:35;100516.59;;;15.28;99.83
17060;BME280;8646;49.716;9.266;2023-05-09T01:32:39;100510.69;;;15.36;99.89
17060;BME280;8646;49.716;9.266;2023-05-09T01:35:48;100505.50;;;15.32;100.00
17060;BME280;8646;49.716;9.266;2023-05-09T01:38:52;100501.94;;;15.45;99.41
17060;BME280;8646;49.716;9.266;2023-05-09T01:41:57;100511.09;;;15.44;99.23
17060;BME280;8646;49.716;9.266;2023-05-09T01:45:06;100510.16;;;15.30;99.77
17060;BME280;8646;49.716;9.266;2023-05-09T01:48:10;100511.84;;;15.32;99.83
17060;BME280;8646;49.716;9.266;2023-05-09T01:51:15;100501.38;;;15.40;99.37
17060;BME280;8646;49.716;9.266;2023-05-09T01:54:19;100504.94;;;15.41;99.25
17060;BME280;8646;49.716;9.266;2023-05-09T01:57:23;100499.25;;;15.30;99.79
17060;BME280;8646;49.716;9.266;2023-05-09T02:00:29;100505.84;;;15.25;100.00
17060;BME280;8646;49.716;9.266;2023-05-09T02:03:33;100508.69;;;15.24;100.00
17060;BME280;8646;49.716;9.266;2023-05-09T02:06:39;100509.00;;;15.34;99.88
17060;BME280;8646;49.716;9.266;2023-05-09T02:09:42;100500.56;;;15.38;99.68
17060;BME280;8646;49.716;9.266;2023-05-09T02:12:45;100492.38;;;15.38;99.58
17060;BME280;8646;49.716;9.266;2023-05-09T02:15:50;100495.50;;;15.32;99.71
17060;BME280;8646;49.716;9.266;2023-05-09T02:18:53;100504.25;;;15.37;99.83
17060;BME280;8646;49.716;9.266;2023-05-09T02:21:55;100499.53;;;15.25;100.00
17060;BME280;8646;49.716;9.266;2023-05-09T02:24:58;100497.84;;;15.38;99.70
17060;BME280;8646;49.716;9.266;2023-05-09T02:28:01;100496.72;;;15.26;100.00
17060;BME280;8646;49.716;9.266;2023-05-09T02:31:07;100496.91;;;15.23;100.00
17060;BME280;8646;49.716;9.266;2023-05-09T02:34:11;100490.91;;;15.17;100.00
17060;BME280;8646;49.716;9.266;2023-05-09T02:37:15;100495.84;;;15.10;100.00
17060;BME280;8646;49.716;9.266;2023-05-09T02:40:18;100500.94;;;15.16;100.00
17060;BME280;8646;49.716;9.266;2023-05-09T02:43:21;100493.84;;;15.14;100.00
17060;BME280;8646;49.716;9.266;2023-05-09T02:46:26;100495.59;;;15.15;100.00
17060;BME280;8646;49.716;9.266;2023-05-09T02:49:29;100490.56;;;15.23;100.00
17060;BME280;8646;49.716;9.266;2023-05-09T02:52:33;100483.09;;;15.11;100.00
17060;BME280;8646;49.716;9.266;2023-05-09T02:55:36;100475.13;;;15.08;100.00
17060;BME280;8646;49.716;9.266;2023-05-09T02:58:38;100480.75;;;15.05;100.00
17060;BME280;8646;49.716;9.266;2023-05-09T03:01:43;100477.44;;;15.00;100.00
17060;BME280;8646;49.716;9.266;2023-05-09T03:04:45;100481.13;;;14.99;100.00
17060;BME280;8646;49.716;9.266;2023-05-09T03:07:48;100470.66;;;15.07;100.00
17060;BME280;8646;49.716;9.266;2023-05-09T03:10:52;100462.03;;;14.99;100.00
17060;BME280;8646;49.716;9.266;2023-05-09T03:13:54;100465.44;;;15.02;100.00
17060;BME280;8646;49.716;9.266;2023-05-09T03:16:58;100462.13;;;14.97;100.00
17060;BME280;8646;49.716;9.266;2023-05-09T03:20:01;100466.94;;;14.92;100.00
17060;BME280;8646;49.716;9.266;2023-05-09T03:23:05;100461.59;;;14.91;100.00
17060;BME280;8646;49.716;9.266;2023-05-09T03:26:08;100459.22;;;14.84;100.00
17060;BME280;8646;49.716;9.266;2023-05-09T03:29:11;100460.63;;;14.76;100.00
17060;BME280;8646;49.716;9.266;2023-05-09T03:32:15;100463.03;;;14.66;100.00
17060;BME280;8646;49.716;9.266;2023-05-09T03:35:18;100464.16;;;14.62;100.00
17060;BME280;8646;49.716;9.266;2023-05-09T03:38:21;100446.50;;;14.54;100.00
17060;BME280;8646;49.716;9.266;2023-05-09T03:41:24;100451.13;;;14.51;100.00
17060;BME280;8646;49.716;9.266;2023-05-09T03:44:27;100448.34;;;14.53;100.00
17060;BME280;8646;49.716;9.266;2023-05-09T03:47:31;100450.69;;;14.43;100.00
17060;BME280;8646;49.716;9.266;2023-05-09T03:50:34;100450.81;;;14.42;100.00
17060;BME280;8646;49.716;9.266;2023-05-09T03:53:37;100446.66;;;14.35;100.00
17060;BME280;8646;49.716;9.266;2023-05-09T03:56:39;100442.94;;;14.36;100.00
17060;BME280;8646;49.716;9.266;2023-05-09T03:59:42;100451.84;;;14.39;100.00
17060;BME280;8646;49.716;9.266;2023-05-09T04:02:46;100423.97;;;14.19;100.00
17060;BME280;8646;49.716;9.266;2023-05-09T04:05:50;100452.41;;;14.29;100.00
17060;BME280;8646;49.716;9.266;2023-05-09T04:08:52;100460.56;;;14.29;100.00
17060;BME280;8646;49.716;9.266;2023-05-09T04:11:55;100455.09;;;14.46;100.00
17060;BME280;8646;49.716;9.266;2023-05-09T04:14:58;100443.75;;;14.54;100.00
17060;BME280;8646;49.716;9.266;2023-05-09T04:18:03;100441.94;;;14.54;100.00
17060;BME280;8646;49.716;9.266;2023-05-09T04:21:06;100445.00;;;14.48;100.00
17060;BME280;8646;49.716;9.266;2023-05-09T04:24:09;100437.00;;;14.45;100.00
17060;BME280;8646;49.716;9.266;2023-05-09T04:27:12;100442.88;;;14.53;100.00
17060;BME280;8646;49.716;9.266;2023-05-09T04:30:15;100439.03;;;14.57;100.00
17060;BME280;8646;49.716;9.266;2023-05-09T04:33:19;100432.88;;;14.69;100.00
17060;BME280;8646;49.716;9.266;2023-05-09T04:36:22;100431.31;;;14.65;100.00
17060;BME280;8646;49.716;9.266;2023-05-09T04:39:25;100433.16;;;14.65;100.00
17060;BME280;8646;49.716;9.266;2023-05-09T04:42:28;100410.03;;;14.56;100.00
17060;BME280;8646;49.716;9.266;2023-05-09T04:45:33;100435.34;;;14.74;100.00
17060;BME280;8646;49.716;9.266;2023-05-09T04:48:38;100432.41;;;14.93;98.92
17060;BME280;8646;49.716;9.266;2023-05-09T04:51:40;100430.31;;;14.98;98.67
17060;BME280;8646;49.716;9.266;2023-05-09T04:54:43;100428.16;;;15.03;98.01
17060;BME280;8646;49.716;9.266;2023-05-09T04:57:46;100433.19;;;14.95;98.40
17060;BME280;8646;49.716;9.266;2023-05-09T05:00:49;100429.69;;;14.93;98.80
17060;BME280;8646;49.716;9.266;2023-05-09T05:03:53;100437.34;;;14.86;99.43
17060;BME280;8646;49.716;9.266;2023-05-09T05:06:56;100440.31;;;14.97;98.99
17060;BME280;8646;49.716;9.266;2023-05-09T05:09:58;100435.38;;;15.04;99.27
17060;BME280;8646;49.716;9.266;2023-05-09T05:13:01;100440.72;;;15.21;98.92
17060;BME280;8646;49.716;9.266;2023-05-09T05:16:04;100435.78;;;15.42;98.58
17060;BME280;8646;49.716;9.266;2023-05-09T05:19:08;100432.94;;;15.59;98.17
17060;BME280;8646;49.716;9.266;2023-05-09T05:22:11;100423.94;;;15.73;96.08
17060;BME280;8646;49.716;9.266;2023-05-09T05:25:14;100412.25;;;15.71;94.22
17060;BME280;8646;49.716;9.266;2023-05-09T05:28:18;100415.84;;;15.71;94.62
17060;BME280;8646;49.716;9.266;2023-05-09T05:31:21;100411.16;;;15.73;94.00
17060;BME280;8646;49.716;9.266;2023-05-09T05:34:25;100402.28;;;15.70;93.70
17060;BME280;8646;49.716;9.266;2023-05-09T05:37:27;100397.22;;;15.63;94.03
17060;BME280;8646;49.716;9.266;2023-05-09T05:40:30;100403.09;;;15.72;93.96
17060;BME280;8646;49.716;9.266;2023-05-09T05:43:33;100389.13;;;16.19;91.75
17060;BME280;8646;49.716;9.266;2023-05-09T05:46:36;100388.56;;;16.55;90.13
17060;BME280;8646;49.716;9.266;2023-05-09T05:49:40;100385.31;;;16.76;88.06
17060;BME280;8646;49.716;9.266;2023-05-09T05:52:43;100375.59;;;16.58;88.31
17060;BME280;8646;49.716;9.266;2023-05-09T05:55:45;100367.53;;;16.42;88.61
17060;BME280;8646;49.716;9.266;2023-05-09T05:58:49;100381.72;;;16.21;89.66
17060;BME280;8646;49.716;9.266;2023-05-09T06:01:52;100395.19;;;16.10;91.04
17060;BME280;8646;49.716;9.266;2023-05-09T06:04:56;100375.53;;;16.46;89.62
17060;BME280;8646;49.716;9.266;2023-05-09T06:07:59;100379.97;;;16.75;86.97
17060;BME280;8646;49.716;9.266;2023-05-09T06:11:01;100373.06;;;16.69;86.82
17060;BME280;8646;49.716;9.266;2023-05-09T06:14:06;100377.06;;;16.64;87.61
17060;BME280;8646;49.716;9.266;2023-05-09T06:17:09;100358.72;;;16.66;86.60
17060;BME280;8646;49.716;9.266;2023-05-09T06:20:13;100357.53;;;16.70;86.24
17060;BME280;8646;49.716;9.266;2023-05-09T06:23:16;100358.88;;;16.77;85.89
17060;BME280;8646;49.716;9.266;2023-05-09T06:26:22;100353.19;;;16.80;84.82
17060;BME280;8646;49.716;9.266;2023-05-09T06:29:25;100350.06;;;16.86;84.67
17060;BME280;8646;49.716;9.266;2023-05-09T06:32:28;100353.88;;;16.96;84.60
17060;BME280;8646;49.716;9.266;2023-05-09T06:35:32;100337.50;;;16.96;83.89
17060;BME280;8646;49.716;9.266;2023-05-09T06:38:35;100347.59;;;17.21;82.51
17060;BME280;8646;49.716;9.266;2023-05-09T06:41:37;100354.25;;;17.04;83.97
17060;BME280;8646;49.716;9.266;2023-05-09T06:44:41;100347.50;;;17.23;84.37
17060;BME280;8646;49.716;9.266;2023-05-09T06:47:44;100343.72;;;17.50;82.27
17060;BME280;8646;49.716;9.266;2023-05-09T06:50:48;100329.50;;;17.58;80.21
17060;BME280;8646;49.716;9.266;2023-05-09T06:53:51;100331.75;;;17.51;81.59
17060;BME280;8646;49.716;9.266;2023-05-09T06:56:54;100335.84;;;17.59;81.63
17060;BME280;8646;49.716;9.266;2023-05-09T06:59:57;100325.88;;;17.70;81.21
17060;BME280;8646;49.716;9.266;2023-05-09T07:03:00;100318.88;;;17.79;81.13
17060;BME280;8646;49.716;9.266;2023-05-09T07:06:04;100313.81;;;17.85;80.43
17060;BME280;8646;49.716;9.266;2023-05-09T07:09:07;100298.47;;;17.96;78.57
17060;BME280;8646;49.716;9.266;2023-05-09T07:12:10;100303.13;;;17.82;79.31
17060;BME280;8646;49.716;9.266;2023-05-09T07:15:13;100306.84;;;17.81;80.11
17060;BME280;8646;49.716;9.266;2023-05-09T07:18:33;100292.16;;;17.70;80.60
17060;BME280;8646;49.716;9.266;2023-05-09T07:21:37;100302.78;;;17.87;80.01
17060;BME280;8646;49.716;9.266;2023-05-09T07:24:40;100298.38;;;17.84;79.39
17060;BME280;8646;49.716;9.266;2023-05-09T07:27:44;100290.28;;;17.96;78.70
17060;BME280;8646;49.716;9.266;2023-05-09T07:30:47;100292.84;;;18.10;78.12
17060;BME280;8646;49.716;9.266;2023-05-09T07:33:50;100289.41;;;18.32;77.64
17060;BME280;8646;49.716;9.266;2023-05-09T07:36:54;100280.34;;;18.42;75.74
17060;BME280;8646;49.716;9.266;2023-05-09T07:39:59;100278.50;;;18.43;75.86
17060;BME280;8646;49.716;9.266;2023-05-09T07:43:02;100279.34;;;18.56;74.92
17060;BME280;8646;49.716;9.266;2023-05-09T07:46:04;100266.41;;;18.58;74.77
17060;BME280;8646;49.716;9.266;2023-05-09T07:49:07;100261.09;;;18.67;74.51
17060;BME280;8646;49.716;9.266;2023-05-09T07:52:12;100259.03;;;18.82;74.12
17060;BME280;8646;49.716;9.266;2023-05-09T07:55:15;100249.88;;;19.05;73.00
17060;BME280;8646;49.716;9.266;2023-05-09T07:58:18;100229.34;;;19.33;71.92
17060;BME280;8646;49.716;9.266;2023-05-09T08:01:21;100229.38;;;19.44;71.30
17060;BME280;8646;49.716;9.266;2023-05-09T08:04:24;100230.78;;;19.50;70.98
17060;BME280;8646;49.716;9.266;2023-05-09T08:07:28;100224.78;;;19.56;70.79
17060;BME280;8646;49.716;9.266;2023-05-09T08:10:31;100219.91;;;19.60;70.20
17060;BME280;8646;49.716;9.266;2023-05-09T08:13:35;100215.91;;;19.75;69.86
17060;BME280;8646;49.716;9.266;2023-05-09T08:16:38;100217.16;;;19.82;68.99
17060;BME280;8646;49.716;9.266;2023-05-09T08:19:41;100205.41;;;19.80;68.51
17060;BME280;8646;49.716;9.266;2023-05-09T08:22:45;100200.91;;;19.90;67.91
17060;BME280;8646;49.716;9.266;2023-05-09T08:25:51;100193.25;;;20.05;67.57
17060;BME280;8646;49.716;9.266;2023-05-09T08:28:54;100196.34;;;20.23;67.34
17060;BME280;8646;49.716;9.266;2023-05-09T08:31:57;100193.03;;;20.51;66.91
17060;BME280;8646;49.716;9.266;2023-05-09T08:35:00;100184.66;;;20.73;65.83
17060;BME280;8646;49.716;9.266;2023-05-09T08:38:04;100181.78;;;20.95;64.58
17060;BME280;8646;49.716;9.266;2023-05-09T08:41:07;100166.75;;;21.00;62.97
17060;BME280;8646;49.716;9.266;2023-05-09T08:44:10;100165.66;;;21.12;63.92
17060;BME280;8646;49.716;9.266;2023-05-09T08:47:13;100159.94;;;21.24;62.49
17060;BME280;8646;49.716;9.266;2023-05-09T08:50:17;100153.31;;;21.27;62.29
17060;BME280;8646;49.716;9.266;2023-05-09T08:53:23;100162.63;;;21.36;62.78
17060;BME280;8646;49.716;9.266;2023-05-09T08:56:28;100165.16;;;21.48;62.36
17060;BME280;8646;49.716;9.266;2023-05-09T08:59:32;100159.38;;;21.61;62.24
17060;BME280;8646;49.716;9.266;2023-05-09T09:02:40;100158.50;;;21.60;61.47
17060;BME280;8646;49.716;9.266;2023-05-09T09:05:43;100153.28;;;21.57;61.35
17060;BME280;8646;49.716;9.266;2023-05-09T09:08:49;100146.94;;;21.66;61.37
17060;BME280;8646;49.716;9.266;2023-05-09T09:11:52;100145.09;;;21.77;60.94
17060;BME280;8646;49.716;9.266;2023-05-09T09:15:01;100144.53;;;21.92;60.29
17060;BME280;8646;49.716;9.266;2023-05-09T09:18:07;100136.91;;;22.15;59.77
17060;BME280;8646;49.716;9.266;2023-05-09T09:21:12;100128.66;;;22.34;57.95
17060;BME280;8646;49.716;9.266;2023-05-09T09:24:20;100114.47;;;22.29;56.12
17060;BME280;8646;49.716;9.266;2023-05-09T09:27:23;100123.84;;;22.46;56.08
17060;BME280;8646;49.716;9.266;2023-05-09T09:30:26;100107.31;;;22.46;55.68
17060;BME280;8646;49.716;9.266;2023-05-09T09:33:29;100114.09;;;22.71;55.78
17060;BME280;8646;49.716;9.266;2023-05-09T09:36:32;100110.09;;;22.75;54.53
17060;BME280;8646;49.716;9.266;2023-05-09T09:39:52;100101.53;;;22.78;54.15
17060;BME280;8646;49.716;9.266;2023-05-09T09:42:55;100084.91;;;22.88;53.56
17060;BME280;8646;49.716;9.266;2023-05-09T09:46:00;100078.06;;;23.01;51.12
17060;BME280;8646;49.716;9.266;2023-05-09T09:49:03;100074.34;;;22.83;51.35
17060;BME280;8646;49.716;9.266;2023-05-09T09:52:06;100069.09;;;22.90;52.18
17060;BME280;8646;49.716;9.266;2023-05-09T09:55:10;100059.16;;;23.06;51.06
17060;BME280;8646;49.716;9.266;2023-05-09T09:58:20;100067.63;;;22.95;50.66
17060;BME280;8646;49.716;9.266;2023-05-09T10:01:25;100064.97;;;23.03;51.40
17060;BME280;8646;49.716;9.266;2023-05-09T10:04:29;100058.53;;;23.12;50.66
17060;BME280;8646;49.716;9.266;2023-05-09T10:07:32;100048.59;;;23.29;50.81
17060;BME280;8646;49.716;9.266;2023-05-09T10:10:37;100042.72;;;23.42;49.70
17060;BME280;8646;49.716;9.266;2023-05-09T10:13:40;100027.81;;;23.35;49.46
17060;BME280;8646;49.716;9.266;2023-05-09T10:16:43;100039.38;;;23.38;49.27
17060;BME280;8646;49.716;9.266;2023-05-09T10:19:48;100028.72;;;23.53;48.60
17060;BME280;8646;49.716;9.266;2023-05-09T10:22:54;100019.59;;;23.70;48.87
17060;BME280;8646;49.716;9.266;2023-05-09T10:26:04;100012.88;;;23.73;47.00
17060;BME280;8646;49.716;9.266;2023-05-09T10:29:11;100007.91;;;23.76;48.10
17060;BME280;8646;49.716;9.266;2023-05-09T10:32:16;100007.53;;;23.89;48.04
17060;BME280;8646;49.716;9.266;2023-05-09T10:35:24;100001.13;;;23.88;46.88
17060;BME280;8646;49.716;9.266;2023-05-09T10:38:29;99995.44;;;24.08;46.23
17060;BME280;8646;49.716;9.266;2023-05-09T10:41:34;99991.53;;;24.18;45.97
17060;BME280;8646;49.716;9.266;2023-05-09T10:44:37;99983.34;;;24.26;45.44
17060;BME280;8646;49.716;9.266;2023-05-09T10:47:42;99980.09;;;24.57;44.89
17060;BME280;8646;49.716;9.266;2023-05-09T10:50:45;99973.22;;;24.61;43.48
17060;BME280;8646;49.716;9.266;2023-05-09T10:53:49;99961.28;;;24.60;43.62
17060;BME280;8646;49.716;9.266;2023-05-09T10:56:54;99962.50;;;24.66;43.34
17060;BME280;8646;49.716;9.266;2023-05-09T10:59:58;99954.41;;;24.64;43.46
17060;BME280;8646;49.716;9.266;2023-05-09T11:03:05;99948.56;;;24.76;43.72
17060;BME280;8646;49.716;9.266;2023-05-09T11:06:08;99940.31;;;24.84;43.18
17060;BME280;8646;49.716;9.266;2023-05-09T11:09:25;99935.75;;;24.75;41.44
17060;BME280;8646;49.716;9.266;2023-05-09T11:12:30;99928.09;;;24.60;41.88
17060;BME280;8646;49.716;9.266;2023-05-09T11:15:33;99918.41;;;24.56;42.17
17060;BME280;8646;49.716;9.266;2023-05-09T11:18:56;99915.78;;;24.55;40.98
17060;BME280;8646;49.716;9.266;2023-05-09T11:22:00;99915.63;;;24.56;41.63
17060;BME280;8646;49.716;9.266;2023-05-09T11:25:05;99909.47;;;24.70;41.87
17060;BME280;8646;49.716;9.266;2023-05-09T11:28:24;99907.09;;;24.84;40.94
17060;BME280;8646;49.716;9.266;2023-05-09T11:31:28;99896.97;;;24.92;40.10
17060;BME280;8646;49.716;9.266;2023-05-09T11:34:32;99901.34;;;25.03;40.34
17060;BME280;8646;49.716;9.266;2023-05-09T11:37:43;99889.59;;;25.17;40.97
17060;BME280;8646;49.716;9.266;2023-05-09T11:40:47;99888.28;;;25.45;40.19
17060;BME280;8646;49.716;9.266;2023-05-09T11:43:51;99874.09;;;25.57;39.37
17060;BME280;8646;49.716;9.266;2023-05-09T11:46:56;99872.50;;;25.54;39.19
17060;BME280;8646;49.716;9.266;2023-05-09T11:49:59;99870.28;;;25.50;38.75
17060;BME280;8646;49.716;9.266;2023-05-09T11:53:01;99863.53;;;25.44;38.80
17060;BME280;8646;49.716;9.266;2023-05-09T11:56:05;99843.41;;;25.26;38.69
17060;BME280;8646;49.716;9.266;2023-05-09T11:59:10;99867.47;;;25.33;38.91
17060;BME280;8646;49.716;9.266;2023-05-09T12:02:15;99859.19;;;25.41;38.63
17060;BME280;8646;49.716;9.266;2023-05-09T12:05:19;99849.50;;;25.37;38.32
17060;BME280;8646;49.716;9.266;2023-05-09T12:08:23;99841.69;;;25.49;38.47
17060;BME280;8646;49.716;9.266;2023-05-09T12:11:28;99819.88;;;25.38;38.38
17060;BME280;8646;49.716;9.266;2023-05-09T12:14:34;99816.59;;;25.26;38.07
17060;BME280;8646;49.716;9.266;2023-05-09T12:17:37;99824.75;;;25.28;38.03
17060;BME280;8646;49.716;9.266;2023-05-09T12:20:41;99814.31;;;25.14;37.43
17060;BME280;8646;49.716;9.266;2023-05-09T12:23:45;99815.16;;;24.98;37.23
17060;BME280;8646;49.716;9.266;2023-05-09T12:26:52;99805.78;;;24.91;37.81
17060;BME280;8646;49.716;9.266;2023-05-09T12:29:59;99806.88;;;25.06;37.85
17060;BME280;8646;49.716;9.266;2023-05-09T12:33:03;99795.16;;;25.28;37.37
17060;BME280;8646;49.716;9.266;2023-05-09T12:36:08;99792.00;;;25.47;37.45
17060;BME280;8646;49.716;9.266;2023-05-09T12:39:12;99784.41;;;25.74;37.70
17060;BME280;8646;49.716;9.266;2023-05-09T12:42:15;99780.41;;;25.93;36.50
17060;BME280;8646;49.716;9.266;2023-05-09T12:45:20;99772.25;;;25.99;35.99
17060;BME280;8646;49.716;9.266;2023-05-09T12:48:24;99776.56;;;26.02;35.88
17060;BME280;8646;49.716;9.266;2023-05-09T12:51:27;99773.84;;;25.86;35.74
17060;BME280;8646;49.716;9.266;2023-05-09T12:54:30;99765.00;;;25.74;36.02
17060;BME280;8646;49.716;9.266;2023-05-09T12:57:34;99763.66;;;25.70;35.93
17060;BME280;8646;49.716;9.266;2023-05-09T13:00:42;99760.91;;;25.62;36.14
17060;BME280;8646;49.716;9.266;2023-05-09T13:03:50;99757.41;;;25.43;36.22
17060;BME280;8646;49.716;9.266;2023-05-09T13:06:55;99745.81;;;25.32;36.11
17060;BME280;8646;49.716;9.266;2023-05-09T13:10:00;99741.13;;;25.24;36.20
17060;BME280;8646;49.716;9.266;2023-05-09T13:13:03;99730.75;;;25.18;36.33
17060;BME280;8646;49.716;9.266;2023-05-09T13:16:07;99726.78;;;25.29;36.75
17060;BME280;8646;49.716;9.266;2023-05-09T13:19:13;99719.69;;;25.34;36.68
17060;BME280;8646;49.716;9.266;2023-05-09T13:22:15;99724.88;;;25.37;36.68
17060;BME280;8646;49.716;9.266;2023-05-09T13:25:21;99713.59;;;25.47;36.43
17060;BME280;8646;49.716;9.266;2023-05-09T13:28:24;99705.81;;;25.59;36.23
17060;BME280;8646;49.716;9.266;2023-05-09T13:31:29;99702.31;;;25.73;36.26
17060;BME280;8646;49.716;9.266;2023-05-09T13:34:32;99685.22;;;25.69;36.34
17060;BME280;8646;49.716;9.266;2023-05-09T13:37:34;99681.84;;;25.82;36.18
17060;BME280;8646;49.716;9.266;2023-05-09T13:40:38;99674.38;;;25.91;35.68
17060;BME280;8646;49.716;9.266;2023-05-09T13:43:40;99665.19;;;25.90;36.03
17060;BME280;8646;49.716;9.266;2023-05-09T13:46:44;99661.19;;;26.01;36.03
17060;BME280;8646;49.716;9.266;2023-05-09T13:49:47;99656.69;;;26.00;35.82
17060;BME280;8646;49.716;9.266;2023-05-09T13:52:50;99652.72;;;25.94;35.70
17060;BME280;8646;49.716;9.266;2023-05-09T13:55:53;99643.72;;;25.92;35.58
17060;BME280;8646;49.716;9.266;2023-05-09T13:58:56;99644.03;;;25.97;35.86
17060;BME280;8646;49.716;9.266;2023-05-09T14:02:00;99642.25;;;26.04;35.91
17060;BME280;8646;49.716;9.266;2023-05-09T14:05:04;99642.09;;;26.06;35.83
17060;BME280;8646;49.716;9.266;2023-05-09T14:08:07;99632.22;;;26.03;35.76
17060;BME280;8646;49.716;9.266;2023-05-09T14:11:12;99632.91;;;26.05;35.50
17060;BME280;8646;49.716;9.266;2023-05-09T14:14:15;99621.84;;;25.97;35.54
17060;BME280;8646;49.716;9.266;2023-05-09T14:17:19;99612.44;;;25.75;35.21
17060;BME280;8646;49.716;9.266;2023-05-09T14:20:22;99619.91;;;25.67;35.94
17060;BME280;8646;49.716;9.266;2023-05-09T14:23:25;99610.59;;;25.52;35.89
17060;BME280;8646;49.716;9.266;2023-05-09T14:26:28;99601.97;;;25.30;36.37
17060;BME280;8646;49.716;9.266;2023-05-09T14:29:30;99602.34;;;25.35;36.87
17060;BME280;8646;49.716;9.266;2023-05-09T14:32:34;99594.00;;;25.43;36.38
17060;BME280;8646;49.716;9.266;2023-05-09T14:35:37;99597.09;;;25.48;36.77
17060;BME280;8646;49.716;9.266;2023-05-09T14:38:42;99592.59;;;25.47;36.18
17060;BME280;8646;49.716;9.266;2023-05-09T14:41:46;99575.44;;;25.52;36.44
17060;BME280;8646;49.716;9.266;2023-05-09T14:44:50;99571.09;;;25.58;36.32
17060;BME280;8646;49.716;9.266;2023-05-09T14:47:54;99578.19;;;25.68;36.52
17060;BME280;8646;49.716;9.266;2023-05-09T14:50:57;99574.03;;;25.95;35.99
17060;BME280;8646;49.716;9.266;2023-05-09T14:54:00;99567.81;;;26.24;35.46
17060;BME280;8646;49.716;9.266;2023-05-09T14:57:05;99566.50;;;26.43;34.82
17060;BME280;8646;49.716;9.266;2023-05-09T15:00:09;99553.06;;;26.54;34.44
17060;BME280;8646;49.716;9.266;2023-05-09T15:03:23;99535.28;;;26.64;34.99
17060;BME280;8646;49.716;9.266;2023-05-09T15:06:26;99534.94;;;26.81;34.73
17060;BME280;8646;49.716;9.266;2023-05-09T15:09:29;99535.22;;;26.86;34.23
17060;BME280;8646;49.716;9.266;2023-05-09T15:12:32;99531.94;;;26.91;34.21
17060;BME280;8646;49.716;9.266;2023-05-09T15:15:35;99526.81;;;26.80;34.37
17060;BME280;8646;49.716;9.266;2023-05-09T15:18:40;99524.88;;;26.66;34.28
17060;BME280;8646;49.716;9.266;2023-05-09T15:21:45;99519.84;;;26.46;34.46
17060;BME280;8646;49.716;9.266;2023-05-09T15:24:48;99521.78;;;26.15;34.53
17060;BME280;8646;49.716;9.266;2023-05-09T15:27:51;99512.00;;;25.73;35.00
17060;BME280;8646;49.716;9.266;2023-05-09T15:30:54;99512.63;;;25.53;35.10
17060;BME280;8646;49.716;9.266;2023-05-09T15:34:00;99510.44;;;25.32;35.48
17060;BME280;8646;49.716;9.266;2023-05-09T15:37:03;99508.91;;;25.29;35.78
17060;BME280;8646;49.716;9.266;2023-05-09T15:40:07;99507.34;;;25.27;35.93
17060;BME280;8646;49.716;9.266;2023-05-09T15:43:10;99503.41;;;25.21;35.86
17060;BME280;8646;49.716;9.266;2023-05-09T15:46:13;99497.69;;;25.15;35.75
17060;BME280;8646;49.716;9.266;2023-05-09T15:49:17;99490.44;;;25.05;36.02
17060;BME280;8646;49.716;9.266;2023-05-09T15:52:20;99491.53;;;25.04;36.26
17060;BME280;8646;49.716;9.266;2023-05-09T15:55:23;99487.22;;;24.94;36.04
17060;BME280;8646;49.716;9.266;2023-05-09T15:58:29;99487.22;;;24.86;36.17
17060;BME280;8646;49.716;9.266;2023-05-09T16:01:32;99488.09;;;24.78;36.33
17060;BME280;8646;49.716;9.266;2023-05-09T16:04:43;99478.25;;;24.67;36.67
17060;BME280;8646;49.716;9.266;2023-05-09T16:07:46;99477.22;;;24.60;37.13
17060;BME280;8646;49.716;9.266;2023-05-09T16:10:50;99473.78;;;24.42;37.74
17060;BME280;8646;49.716;9.266;2023-05-09T16:13:53;99472.44;;;24.38;37.64
17060;BME280;8646;49.716;9.266;2023-05-09T16:16:56;99471.72;;;24.28;37.92
17060;BME280;8646;49.716;9.266;2023-05-09T16:20:00;99467.41;;;24.25;38.12